createdAt,value
2023-05-20T00:00:50.418Z,21.3
2023-05-20T00:15:50.451Z,19.5
2023-05-20T00:30:55.637Z,22.7
2023-05-20T00:45:52.711Z,25.4
2023-05-20T01:00:53.139Z,24.7
2023-05-20T01:01:26.571Z,27.2
2023-05-20T01:15:53.709Z,30.4
2023-05-20T01:30:57.251Z,28.4
2023-05-20T01:45:55.211Z,26.9
2023-05-20T02:00:56.720Z,25.1
2023-05-20T02:15:56.106Z,25.9
2023-05-20T02:30:57.206Z,31.7
2023-05-20T02:45:58.943Z,28.9
2023-05-20T03:00:59.044Z,34.1
2023-05-20T03:16:02.285Z,30.9
2023-05-20T03:31:03.177Z,30.3
2023-05-20T03:37:18.614Z,27.5
2023-05-20T03:52:19.211Z,26.5
2023-05-20T04:07:19.565Z,29.5
2023-05-20T04:22:20.095Z,26.4
2023-05-20T04:37:20.546Z,33.4
2023-05-20T04:52:22.239Z,29.7
2023-05-20T05:07:22.006Z,28
2023-05-20T05:22:22.312Z,25.7
2023-05-20T05:37:22.880Z,24.8
2023-05-20T05:52:24.696Z,24.1
2023-05-20T06:07:26.942Z,24.3
2023-05-20T06:22:25.253Z,27
2023-05-20T06:37:25.412Z,26.7
2023-05-20T06:52:26.365Z,23.2
2023-05-20T07:07:27.942Z,23
2023-05-20T07:22:28.818Z,19.4
2023-05-20T07:37:29.280Z,29.1
2023-05-20T07:52:55.746Z,25.7
2023-05-20T08:07:29.781Z,18.9
2023-05-20T08:22:41.947Z,22.9
2023-05-20T08:37:31.120Z,15.1
2023-05-20T08:52:32.036Z,27.9
2023-05-20T09:07:32.284Z,23.5
2023-05-20T09:22:37.001Z,15.6
2023-05-20T09:37:33.720Z,14.6
2023-05-20T09:52:34.587Z,13.5
2023-05-20T10:07:42.736Z,13.4
2023-05-20T10:22:35.067Z,12.2
2023-05-20T10:37:36.019Z,13.3
2023-05-20T10:52:36.916Z,11.4
2023-05-20T11:07:37.542Z,11.7
2023-05-20T11:22:39.632Z,9.1
2023-05-20T11:37:38.860Z,7.4
2023-05-20T11:52:40.394Z,8.4
2023-05-20T12:07:44.025Z,7.9
2023-05-20T12:22:41.088Z,6
2023-05-20T12:37:42.716Z,6.4
2023-05-20T12:52:42.878Z,7.2
2023-05-20T13:07:43.845Z,6
2023-05-20T13:22:43.726Z,9.6
2023-05-20T13:37:43.800Z,12.2
2023-05-20T13:52:44.796Z,8.8
2023-05-20T14:07:44.706Z,6.8
2023-05-20T14:22:46.072Z,6.4
2023-05-20T14:37:55.873Z,6.3
2023-05-20T14:52:48.822Z,4.9
2023-05-20T15:07:48.014Z,6.6
2023-05-20T15:22:48.519Z,4.2
2023-05-20T15:37:49.798Z,5.8
2023-05-20T15:52:50.333Z,4.1
2023-05-20T16:07:50.217Z,4.8
2023-05-20T16:22:50.433Z,5
2023-05-20T16:37:51.731Z,4.4
2023-05-20T16:52:52.656Z,5.3
2023-05-20T17:07:53.068Z,6.8
2023-05-20T17:22:53.337Z,6.4
2023-05-20T17:37:54.240Z,7.6
2023-05-20T17:52:57.516Z,8.7
2023-05-20T18:07:57.068Z,9.8
2023-05-20T18:22:56.214Z,8.2
2023-05-20T18:37:57.795Z,8.9
2023-05-20T18:52:58.569Z,9.2
2023-05-20T19:07:59.116Z,9.1
2023-05-20T19:22:59.021Z,10.6
2023-05-20T19:37:59.284Z,9.3
2023-05-20T19:53:02.467Z,8.7
2023-05-20T20:08:01.098Z,7.9
2023-05-20T20:23:01.104Z,6.9
2023-05-20T20:38:02.058Z,8.9
2023-05-20T20:53:03.995Z,9.7
2023-05-20T21:08:05.069Z,9.6
2023-05-20T21:23:04.946Z,10.1
2023-05-20T21:38:04.927Z,12.2
2023-05-20T21:53:04.931Z,10.5
2023-05-20T22:00:39.309Z,10.4
2023-05-20T22:15:38.183Z,9.7
2023-05-20T22:30:37.446Z,9.6
2023-05-20T22:45:38.067Z,11.1
2023-05-20T23:00:38.390Z,10.9
2023-05-20T23:15:39.013Z,11.1
2023-05-20T23:30:39.987Z,10.9
2023-05-20T23:45:39.884Z,14.4
